createdAt,value
2019-04-28T00:01:31.393Z,1.60
2019-04-28T00:04:03.431Z,1.40
2019-04-28T00:06:34.899Z,2.70
2019-04-28T00:09:06.844Z,2.80
2019-04-28T00:11:38.352Z,2.43
2019-04-28T00:14:11.852Z,2.00
2019-04-28T00:16:43.161Z,1.50
2019-04-28T00:19:14.393Z,1.70
2019-04-28T00:21:51.700Z,1.87
2019-04-28T00:24:41.701Z,2.27
2019-04-28T00:27:13.024Z,2.33
2019-04-28T00:29:46.143Z,1.70
2019-04-28T00:32:18.640Z,2.00
2019-04-28T00:34:51.181Z,1.53
2019-04-28T00:37:24.578Z,1.43
2019-04-28T00:39:55.910Z,1.83
2019-04-28T00:42:27.356Z,1.80
2019-04-28T00:44:58.699Z,1.90
2019-04-28T00:47:31.078Z,1.73
2019-04-28T00:50:04.935Z,1.67
2019-04-28T00:52:36.274Z,1.80
2019-04-28T00:55:07.688Z,1.87
2019-04-28T00:57:40.835Z,1.70
2019-04-28T01:00:13.570Z,1.93
2019-04-28T01:02:45.116Z,1.20
2019-04-28T01:05:16.445Z,2.30
2019-04-28T01:07:47.536Z,1.83
2019-04-28T01:10:21.085Z,1.90
2019-04-28T01:12:52.193Z,1.90
2019-04-28T01:15:30.671Z,2.00
2019-04-28T01:21:56.926Z,1.80
2019-04-28T01:24:29.758Z,1.60
2019-04-28T01:27:00.981Z,2.00
2019-04-28T01:29:32.222Z,2.27
2019-04-28T01:32:06.630Z,1.60
2019-04-28T01:34:37.833Z,1.63
2019-04-28T01:37:09.734Z,1.50
2019-04-28T01:39:41.338Z,2.00
2019-04-28T01:42:12.597Z,1.63
2019-04-28T01:44:43.836Z,1.43
2019-04-28T01:47:15.038Z,1.57
2019-04-28T01:49:46.250Z,1.40
2019-04-28T01:52:17.523Z,1.77
2019-04-28T01:54:50.197Z,2.03
2019-04-28T01:57:21.602Z,1.87
2019-04-28T01:59:52.676Z,1.67
2019-04-28T02:02:23.952Z,1.80
2019-04-28T02:04:55.396Z,1.70
2019-04-28T02:07:27.785Z,1.80
2019-04-28T02:10:00.742Z,1.50
2019-04-28T02:12:32.116Z,2.10
2019-04-28T02:15:05.244Z,1.40
2019-04-28T02:17:36.513Z,2.00
2019-04-28T02:20:07.955Z,2.03
2019-04-28T02:22:46.898Z,2.43
2019-04-28T02:25:19.695Z,2.03
2019-04-28T02:27:51.518Z,1.57
2019-04-28T02:30:40.930Z,1.60
2019-04-28T02:32:55.778Z,1.80
2019-04-28T02:35:26.781Z,1.73
2019-04-28T02:38:00.065Z,1.80
2019-04-28T02:40:31.207Z,1.80
2019-04-28T02:43:02.691Z,1.70
2019-04-28T02:45:34.930Z,2.00
2019-04-28T02:48:08.019Z,2.33
2019-04-28T02:50:43.795Z,2.47
2019-04-28T02:53:21.122Z,1.90
2019-04-28T02:55:52.497Z,1.73
2019-04-28T02:58:23.840Z,2.47
2019-04-28T03:01:07.365Z,2.73
2019-04-28T03:03:30.639Z,2.27
2019-04-28T03:06:01.811Z,2.30
2019-04-28T03:08:33.761Z,2.47
2019-04-28T03:11:05.033Z,1.93
2019-04-28T03:13:36.224Z,2.57
2019-04-28T03:16:07.455Z,2.70
2019-04-28T03:18:41.070Z,2.33
2019-04-28T03:21:11.826Z,2.67
2019-04-28T03:23:42.878Z,2.40
2019-04-28T03:26:33.765Z,2.80
2019-04-28T03:29:15.934Z,2.60
2019-04-28T03:32:15.596Z,2.90
2019-04-28T03:34:27.150Z,2.67
2019-04-28T03:37:00.324Z,2.97
2019-04-28T03:39:31.510Z,2.60
2019-04-28T03:42:02.949Z,3.10
2019-04-28T03:44:34.232Z,2.97
2019-04-28T03:47:05.494Z,2.70
2019-04-28T03:49:36.768Z,2.90
2019-04-28T03:52:10.519Z,3.30
2019-04-28T03:54:41.277Z,2.43
2019-04-28T03:57:12.471Z,2.77
2019-04-28T11:57:34.280Z,2.03
2019-04-28T12:00:07.707Z,4.03
2019-04-28T12:02:39.074Z,2.10
2019-04-28T12:05:10.397Z,2.27
2019-04-28T12:07:41.715Z,1.90
2019-04-28T12:10:16.609Z,2.03
2019-04-28T12:12:56.433Z,2.40
2019-04-28T12:15:32.490Z,2.20
2019-04-28T12:18:19.444Z,1.73
2019-04-28T12:20:50.767Z,2.03
2019-04-28T12:23:22.064Z,2.43
2019-04-28T12:25:53.620Z,2.20
2019-04-28T12:28:24.893Z,3.00
2019-04-28T12:30:56.107Z,2.23
2019-04-28T12:33:27.399Z,2.60
2019-04-28T12:35:58.846Z,2.30
2019-04-28T12:38:30.126Z,2.43
2019-04-28T12:41:01.328Z,2.40
2019-04-28T12:43:32.683Z,2.53
2019-04-28T12:46:04.050Z,2.30
2019-04-28T12:48:35.330Z,2.10
2019-04-28T12:51:06.730Z,2.00
2019-04-28T12:53:38.529Z,2.17
2019-04-28T12:56:09.852Z,2.33
2019-04-28T12:58:41.104Z,2.50
2019-04-28T13:01:17.052Z,2.47
2019-04-28T13:03:59.062Z,2.60
2019-04-28T13:06:30.234Z,2.40
2019-04-28T13:09:01.632Z,2.30
2019-04-28T13:11:36.688Z,1.93
2019-04-28T13:14:07.875Z,2.27
2019-04-28T13:16:39.294Z,2.73
2019-04-28T13:19:10.456Z,2.50
2019-04-28T13:21:41.766Z,2.50
2019-04-28T13:24:13.080Z,2.70
2019-04-28T13:26:44.401Z,2.83
2019-04-28T13:29:15.694Z,2.90
2019-04-28T13:31:46.924Z,2.43
2019-04-28T13:34:20.058Z,2.37
2019-04-28T13:36:51.173Z,2.43
2019-04-28T13:39:24.367Z,2.60
2019-04-28T13:41:55.346Z,2.20
2019-04-28T13:44:44.870Z,2.10
2019-04-28T13:47:16.209Z,2.57
2019-04-28T13:49:49.486Z,2.37
2019-04-28T13:52:20.743Z,2.13
2019-04-28T13:54:53.866Z,2.27
2019-04-28T13:57:25.006Z,2.37
2019-04-28T13:59:57.962Z,2.60
2019-04-28T14:02:45.933Z,2.33
2019-04-28T14:05:21.668Z,2.73
2019-04-28T14:07:52.959Z,2.43
2019-04-28T14:10:24.244Z,3.60
2019-04-28T14:12:55.675Z,2.30
2019-04-28T14:15:26.941Z,2.30
2019-04-28T14:17:58.128Z,1.97
2019-04-28T14:20:29.804Z,2.33
2019-04-28T14:23:01.057Z,2.10
2019-04-28T14:25:32.153Z,2.40
2019-04-28T14:28:03.383Z,1.87
2019-04-28T14:30:34.681Z,2.10
2019-04-28T14:33:06.484Z,2.50
2019-04-28T14:35:37.808Z,2.17
2019-04-28T14:38:09.085Z,2.17
2019-04-28T14:40:40.179Z,2.63
2019-04-28T14:43:11.550Z,2.07
2019-04-28T14:45:43.523Z,2.10
2019-04-28T14:48:14.838Z,2.33
2019-04-28T14:50:46.069Z,2.33
2019-04-28T14:53:17.226Z,2.33
2019-04-28T14:55:48.481Z,2.60
2019-04-28T14:58:19.670Z,2.40
2019-04-28T15:01:01.478Z,2.53
2019-04-28T15:03:34.758Z,2.40
2019-04-28T15:06:07.826Z,2.20
2019-04-28T15:08:52.931Z,2.27
2019-04-28T15:11:31.891Z,2.50
2019-04-28T15:14:03.057Z,2.43
2019-04-28T15:16:34.417Z,2.00
2019-04-28T15:19:05.840Z,2.63
2019-04-28T15:21:37.197Z,2.40
2019-04-28T15:24:08.320Z,2.57
2019-04-28T15:26:39.409Z,2.60
2019-04-28T15:29:10.593Z,2.33
2019-04-28T15:31:41.841Z,2.40
2019-04-28T15:34:12.964Z,2.57
2019-04-28T15:36:44.130Z,2.27
2019-04-28T15:39:15.355Z,2.50
2019-04-28T15:41:46.764Z,2.63
2019-04-28T15:44:17.903Z,2.67
2019-04-28T15:46:48.969Z,2.73
2019-04-28T15:49:20.113Z,2.50
2019-04-28T15:51:51.324Z,2.63
2019-04-28T15:54:23.680Z,2.20
2019-04-28T15:56:55.084Z,2.57
2019-04-28T15:59:26.270Z,2.80
2019-04-28T16:01:57.389Z,2.50
2019-04-28T16:04:28.612Z,2.00
2019-04-28T16:06:59.647Z,2.13
2019-04-28T16:09:30.852Z,2.10
2019-04-28T16:12:02.118Z,2.20
2019-04-28T16:14:33.392Z,2.43
2019-04-28T16:17:04.725Z,2.70
2019-04-28T16:19:36.053Z,2.17
2019-04-28T16:22:07.438Z,2.20
2019-04-28T16:24:38.689Z,2.83
2019-04-28T16:27:10.078Z,2.43
2019-04-28T16:29:41.316Z,2.50
2019-04-28T16:32:12.590Z,2.47
2019-04-28T16:34:43.918Z,2.80
2019-04-28T16:37:15.110Z,2.20
2019-04-28T16:39:46.140Z,2.43
2019-04-28T16:42:21.530Z,2.67
2019-04-28T16:44:53.667Z,2.67
2019-04-28T16:47:24.726Z,2.30
2019-04-28T16:49:55.863Z,2.60
2019-04-28T16:52:27.033Z,2.20
2019-04-28T16:55:03.841Z,2.30
2019-04-28T16:57:36.983Z,2.80
2019-04-28T17:00:10.621Z,2.30
2019-04-28T17:02:42.203Z,2.10
2019-04-28T17:05:14.324Z,2.57
2019-04-28T17:10:12.523Z,2.50
2019-04-28T17:12:43.997Z,2.93
2019-04-28T17:15:15.310Z,2.20
2019-04-28T17:17:47.262Z,2.50
2019-04-28T17:20:18.747Z,2.60
2019-04-28T17:22:49.912Z,2.37
2019-04-28T17:25:21.329Z,2.13
2019-04-28T17:27:52.689Z,2.33
2019-04-28T17:30:24.416Z,2.93
2019-04-28T17:32:55.736Z,2.57
2019-04-28T17:35:27.319Z,2.47
2019-04-28T17:38:06.363Z,2.30
2019-04-28T17:40:33.479Z,3.13
2019-04-28T17:43:06.349Z,5.20
2019-04-28T17:45:38.705Z,2.40
2019-04-28T17:48:12.873Z,2.87
2019-04-28T17:50:45.444Z,2.20
2019-04-28T17:53:17.778Z,2.40
2019-04-28T17:55:49.055Z,2.43
2019-04-28T17:58:20.064Z,2.30
2019-04-28T18:00:55.751Z,2.23
2019-04-28T18:03:40.949Z,2.27
2019-04-28T18:06:18.212Z,2.30
2019-04-28T18:08:49.859Z,2.40
2019-04-28T18:11:21.180Z,2.60
2019-04-28T18:13:52.596Z,2.60
2019-04-28T18:16:26.815Z,2.70
2019-04-28T18:19:00.546Z,2.57
2019-04-28T18:21:31.835Z,2.43
2019-04-28T18:24:03.388Z,2.40
2019-04-28T18:26:34.653Z,2.80
2019-04-28T18:29:05.712Z,2.60
2019-04-28T18:31:38.913Z,2.97
2019-04-28T18:34:23.950Z,3.67
2019-04-28T18:37:14.179Z,3.50
2019-04-28T18:40:05.437Z,2.80
2019-04-28T18:42:39.070Z,3.07
2019-04-28T18:45:11.186Z,3.43
2019-04-28T18:47:43.440Z,2.57
2019-04-28T18:50:15.057Z,2.50
2019-04-28T18:52:46.412Z,2.87
2019-04-28T18:55:17.501Z,2.63
2019-04-28T18:57:48.886Z,2.73
2019-04-28T19:00:22.865Z,2.90
2019-04-28T19:02:54.495Z,2.93
2019-04-28T19:05:28.753Z,2.90
2019-04-28T19:08:17.522Z,3.17
2019-04-28T19:11:02.767Z,3.20
2019-04-28T19:13:35.856Z,3.17
2019-04-28T19:16:08.962Z,3.60
2019-04-28T19:18:41.988Z,3.33
2019-04-28T19:21:13.263Z,3.17
2019-04-28T19:23:44.505Z,2.70
2019-04-28T19:26:15.877Z,3.23
2019-04-28T19:28:47.124Z,2.97
2019-04-28T19:31:18.371Z,5.03
2019-04-28T19:33:49.801Z,4.53
2019-04-28T19:36:21.131Z,3.93
2019-04-28T19:39:02.446Z,3.67
2019-04-28T19:41:25.289Z,3.17
2019-04-28T19:43:56.634Z,3.60
2019-04-28T19:46:27.848Z,3.80
2019-04-28T19:48:59.139Z,3.73
2019-04-28T19:51:32.107Z,4.03
2019-04-28T19:54:05.788Z,3.67
2019-04-28T19:56:39.100Z,4.30
2019-04-28T19:59:28.639Z,4.50
2019-04-28T20:02:02.256Z,4.20
2019-04-28T20:04:33.140Z,3.47
2019-04-28T20:07:04.266Z,3.67
2019-04-28T20:09:35.409Z,3.73
2019-04-28T20:12:06.679Z,3.80
2019-04-28T20:14:37.928Z,3.87
2019-04-28T20:17:09.331Z,3.50
2019-04-28T20:19:40.653Z,3.33
2019-04-28T20:22:11.953Z,3.60
2019-04-28T20:24:47.232Z,3.50
2019-04-28T20:27:16.342Z,3.40
2019-04-28T20:29:47.720Z,3.73
2019-04-28T20:32:19.130Z,5.00
2019-04-28T20:34:50.890Z,6.67
2019-04-28T20:37:32.720Z,6.90
2019-04-28T20:40:06.906Z,6.97
2019-04-28T20:42:45.943Z,6.40
2019-04-28T20:45:17.154Z,6.70
2019-04-28T20:47:48.435Z,5.33
2019-04-28T20:50:19.827Z,4.50
2019-04-28T20:52:50.884Z,5.00
2019-04-28T20:55:22.108Z,4.20
2019-04-28T20:57:53.420Z,5.20
2019-04-28T21:00:24.794Z,4.97
2019-04-28T21:02:56.094Z,4.97
2019-04-28T21:05:28.356Z,4.83
2019-04-28T21:07:59.596Z,4.80
2019-04-28T21:10:38.246Z,5.10
2019-04-28T21:13:05.591Z,4.50
2019-04-28T21:15:36.849Z,4.77
2019-04-28T21:18:07.985Z,4.77
2019-04-28T21:20:39.114Z,4.67
2019-04-28T21:23:10.121Z,4.70
2019-04-28T21:25:41.299Z,5.40
2019-04-28T21:28:12.449Z,5.10
2019-04-28T21:30:44.767Z,4.70
2019-04-28T21:33:16.064Z,4.40
2019-04-28T21:35:48.356Z,4.77
2019-04-28T21:38:19.631Z,4.47
2019-04-28T21:40:50.792Z,5.03
2019-04-28T21:43:23.929Z,4.50
2019-04-28T21:45:59.870Z,4.63
2019-04-28T21:48:41.759Z,3.90
2019-04-28T21:51:13.633Z,3.97
2019-04-28T21:53:44.853Z,4.50
2019-04-28T21:56:15.901Z,3.70
2019-04-28T21:58:47.143Z,4.00
2019-04-28T22:01:20.811Z,3.90
2019-04-28T22:03:52.146Z,3.93
2019-04-28T22:06:23.394Z,3.90
2019-04-28T22:08:54.740Z,4.10
2019-04-28T22:11:25.952Z,4.43
2019-04-28T22:13:57.132Z,4.50
2019-04-28T22:16:28.392Z,5.03
2019-04-28T22:18:59.569Z,4.37
2019-04-28T22:21:30.798Z,4.60
2019-04-28T22:24:06.863Z,4.53
2019-04-28T22:26:49.884Z,4.20
2019-04-28T22:29:21.021Z,4.77
2019-04-28T22:31:52.229Z,4.10
2019-04-28T22:34:23.524Z,4.30
2019-04-28T22:36:54.634Z,4.40
2019-04-28T22:39:25.813Z,3.43
2019-04-28T22:41:56.930Z,4.87
2019-04-28T22:44:28.213Z,4.43
2019-04-28T22:46:59.328Z,4.33
2019-04-28T22:49:30.493Z,3.70
2019-04-28T22:52:01.908Z,4.93
2019-04-28T22:54:46.982Z,4.33
2019-04-28T22:57:32.063Z,5.57
2019-04-28T23:00:08.346Z,5.40
2019-04-28T23:02:41.261Z,5.50
2019-04-28T23:05:12.426Z,4.33
2019-04-28T23:07:43.648Z,4.63
2019-04-28T23:10:15.238Z,5.07
2019-04-28T23:12:46.442Z,4.63
2019-04-28T23:15:17.658Z,4.73
2019-04-28T23:17:49.033Z,4.50
2019-04-28T23:20:20.276Z,4.07
2019-04-28T23:22:52.399Z,4.23
2019-04-28T23:25:23.708Z,3.90
2019-04-28T23:27:54.998Z,4.10
2019-04-28T23:30:32.958Z,4.27
2019-04-28T23:33:04.330Z,3.87
2019-04-28T23:35:35.429Z,4.13
2019-04-28T23:38:06.680Z,4.00
2019-04-28T23:40:40.066Z,3.80
2019-04-28T23:43:19.017Z,3.60
2019-04-28T23:45:50.182Z,4.13
2019-04-28T23:48:21.452Z,4.07
2019-04-28T23:50:54.436Z,4.23
2019-04-28T23:53:44.143Z,3.63
2019-04-28T23:56:15.462Z,4.10
2019-04-28T23:58:46.663Z,3.77
